sensor_id;sensor_type;location;lat;lon;timestamp;P1;durP1;ratioP1;P2;durP2;ratioP2
19605;SDS011;9950;50.168;8.210;2022-10-13T00:01:11;29.83;;;14.30;;
19605;SDS011;9950;50.168;8.210;2022-10-13T00:03:38;47.95;;;13.52;;
19605;SDS011;9950;50.168;8.210;2022-10-13T00:06:07;84.50;;;19.95;;
19605;SDS011;9950;50.168;8.210;2022-10-13T00:08:35;64.50;;;16.83;;
19605;SDS011;9950;50.168;8.210;2022-10-13T00:11:08;54.80;;;16.98;;
19605;SDS011;9950;50.168;8.210;2022-10-13T00:13:36;53.33;;;17.95;;
19605;SDS011;9950;50.168;8.210;2022-10-13T00:16:03;42.85;;;17.55;;
19605;SDS011;9950;50.168;8.210;2022-10-13T00:18:31;51.95;;;16.35;;
19605;SDS011;9950;50.168;8.210;2022-10-13T00:20:58;42.65;;;16.92;;
19605;SDS011;9950;50.168;8.210;2022-10-13T00:23:25;36.80;;;14.55;;
19605;SDS011;9950;50.168;8.210;2022-10-13T00:25:52;33.30;;;14.85;;
19605;SDS011;9950;50.168;8.210;2022-10-13T00:28:19;27.75;;;14.00;;
19605;SDS011;9950;50.168;8.210;2022-10-13T00:30:48;32.45;;;13.70;;
19605;SDS011;9950;50.168;8.210;2022-10-13T00:33:15;33.17;;;13.25;;
19605;SDS011;9950;50.168;8.210;2022-10-13T00:35:43;47.30;;;15.07;;
19605;SDS011;9950;50.168;8.210;2022-10-13T00:38:10;30.20;;;12.93;;
19605;SDS011;9950;50.168;8.210;2022-10-13T00:40:44;29.95;;;12.70;;
19605;SDS011;9950;50.168;8.210;2022-10-13T00:43:13;26.77;;;12.02;;
19605;SDS011;9950;50.168;8.210;2022-10-13T00:45:42;30.05;;;13.48;;
19605;SDS011;9950;50.168;8.210;2022-10-13T00:48:11;29.80;;;12.82;;
19605;SDS011;9950;50.168;8.210;2022-10-13T00:50:39;28.98;;;12.85;;
19605;SDS011;9950;50.168;8.210;2022-10-13T00:53:07;28.08;;;12.20;;
19605;SDS011;9950;50.168;8.210;2022-10-13T00:55:35;54.75;;;14.30;;
19605;SDS011;9950;50.168;8.210;2022-10-13T00:58:05;55.05;;;13.90;;
19605;SDS011;9950;50.168;8.210;2022-10-13T01:00:33;56.38;;;14.82;;
19605;SDS011;9950;50.168;8.210;2022-10-13T01:03:01;44.97;;;13.45;;
19605;SDS011;9950;50.168;8.210;2022-10-13T01:05:29;53.25;;;13.70;;
19605;SDS011;9950;50.168;8.210;2022-10-13T01:07:57;50.08;;;13.55;;
19605;SDS011;9950;50.168;8.210;2022-10-13T01:10:27;54.00;;;14.15;;
19605;SDS011;9950;50.168;8.210;2022-10-13T01:12:59;44.85;;;13.38;;
19605;SDS011;9950;50.168;8.210;2022-10-13T01:15:28;29.58;;;12.75;;
19605;SDS011;9950;50.168;8.210;2022-10-13T01:17:58;28.58;;;13.30;;
19605;SDS011;9950;50.168;8.210;2022-10-13T01:20:38;34.83;;;13.85;;
19605;SDS011;9950;50.168;8.210;2022-10-13T01:23:22;37.40;;;13.35;;
19605;SDS011;9950;50.168;8.210;2022-10-13T01:26:02;54.83;;;16.42;;
19605;SDS011;9950;50.168;8.210;2022-10-13T01:28:39;53.50;;;13.82;;
19605;SDS011;9950;50.168;8.210;2022-10-13T01:31:12;54.53;;;14.40;;
19605;SDS011;9950;50.168;8.210;2022-10-13T01:33:41;62.92;;;13.45;;
19605;SDS011;9950;50.168;8.210;2022-10-13T01:36:13;44.83;;;13.85;;
19605;SDS011;9950;50.168;8.210;2022-10-13T01:38:44;32.65;;;13.25;;
19605;SDS011;9950;50.168;8.210;2022-10-13T01:41:12;35.58;;;13.82;;
19605;SDS011;9950;50.168;8.210;2022-10-13T01:43:42;31.23;;;13.13;;
19605;SDS011;9950;50.168;8.210;2022-10-13T01:46:13;34.45;;;14.85;;
19605;SDS011;9950;50.168;8.210;2022-10-13T01:48:41;36.40;;;15.30;;
19605;SDS011;9950;50.168;8.210;2022-10-13T01:51:12;33.55;;;14.45;;
19605;SDS011;9950;50.168;8.210;2022-10-13T01:53:40;33.72;;;13.25;;
19605;SDS011;9950;50.168;8.210;2022-10-13T01:56:08;31.45;;;12.77;;
19605;SDS011;9950;50.168;8.210;2022-10-13T01:58:35;29.30;;;13.20;;
19605;SDS011;9950;50.168;8.210;2022-10-13T02:01:05;30.40;;;15.38;;
19605;SDS011;9950;50.168;8.210;2022-10-13T02:03:40;32.35;;;14.90;;
19605;SDS011;9950;50.168;8.210;2022-10-13T02:06:12;28.08;;;14.57;;
19605;SDS011;9950;50.168;8.210;2022-10-13T02:08:43;28.65;;;13.82;;
19605;SDS011;9950;50.168;8.210;2022-10-13T02:11:12;30.65;;;13.10;;
19605;SDS011;9950;50.168;8.210;2022-10-13T02:13:40;27.88;;;12.82;;
19605;SDS011;9950;50.168;8.210;2022-10-13T02:16:08;29.67;;;13.65;;
19605;SDS011;9950;50.168;8.210;2022-10-13T02:18:36;26.52;;;13.13;;
19605;SDS011;9950;50.168;8.210;2022-10-13T02:21:05;31.30;;;14.38;;
19605;SDS011;9950;50.168;8.210;2022-10-13T02:23:32;31.65;;;14.52;;
19605;SDS011;9950;50.168;8.210;2022-10-13T02:25:59;26.35;;;13.55;;
19605;SDS011;9950;50.168;8.210;2022-10-13T02:28:27;27.65;;;14.13;;
19605;SDS011;9950;50.168;8.210;2022-10-13T02:30:54;26.52;;;13.85;;
19605;SDS011;9950;50.168;8.210;2022-10-13T02:33:21;23.75;;;12.82;;
19605;SDS011;9950;50.168;8.210;2022-10-13T02:35:49;25.60;;;12.82;;
19605;SDS011;9950;50.168;8.210;2022-10-13T02:38:17;25.98;;;12.77;;
19605;SDS011;9950;50.168;8.210;2022-10-13T02:40:44;23.27;;;12.32;;
19605;SDS011;9950;50.168;8.210;2022-10-13T02:43:11;25.90;;;12.02;;
19605;SDS011;9950;50.168;8.210;2022-10-13T02:45:38;25.98;;;12.02;;
19605;SDS011;9950;50.168;8.210;2022-10-13T02:48:06;25.20;;;12.20;;
19605;SDS011;9950;50.168;8.210;2022-10-13T02:50:33;23.48;;;12.38;;
19605;SDS011;9950;50.168;8.210;2022-10-13T02:53:00;25.15;;;12.55;;
19605;SDS011;9950;50.168;8.210;2022-10-13T02:55:29;25.35;;;12.38;;
19605;SDS011;9950;50.168;8.210;2022-10-13T02:57:56;23.48;;;11.90;;
19605;SDS011;9950;50.168;8.210;2022-10-13T03:00:23;27.85;;;12.35;;
19605;SDS011;9950;50.168;8.210;2022-10-13T03:02:50;23.58;;;12.63;;
19605;SDS011;9950;50.168;8.210;2022-10-13T03:05:18;24.25;;;12.05;;
19605;SDS011;9950;50.168;8.210;2022-10-13T03:07:45;25.02;;;12.05;;
19605;SDS011;9950;50.168;8.210;2022-10-13T03:10:13;23.83;;;12.25;;
19605;SDS011;9950;50.168;8.210;2022-10-13T03:12:42;23.70;;;11.45;;
19605;SDS011;9950;50.168;8.210;2022-10-13T03:15:09;24.08;;;12.27;;
19605;SDS011;9950;50.168;8.210;2022-10-13T03:17:36;24.60;;;11.63;;
19605;SDS011;9950;50.168;8.210;2022-10-13T03:20:04;30.00;;;14.57;;
19605;SDS011;9950;50.168;8.210;2022-10-13T03:22:31;30.23;;;13.45;;
19605;SDS011;9950;50.168;8.210;2022-10-13T03:24:58;28.30;;;13.05;;
19605;SDS011;9950;50.168;8.210;2022-10-13T03:27:26;32.60;;;13.20;;
19605;SDS011;9950;50.168;8.210;2022-10-13T03:29:54;31.30;;;14.10;;
19605;SDS011;9950;50.168;8.210;2022-10-13T03:32:21;30.23;;;13.48;;
19605;SDS011;9950;50.168;8.210;2022-10-13T03:34:48;27.98;;;12.80;;
19605;SDS011;9950;50.168;8.210;2022-10-13T03:37:16;26.75;;;13.15;;
19605;SDS011;9950;50.168;8.210;2022-10-13T03:39:43;25.17;;;12.65;;
19605;SDS011;9950;50.168;8.210;2022-10-13T03:42:10;26.77;;;12.23;;
19605;SDS011;9950;50.168;8.210;2022-10-13T03:44:37;24.33;;;12.02;;
19605;SDS011;9950;50.168;8.210;2022-10-13T03:47:06;26.10;;;12.25;;
19605;SDS011;9950;50.168;8.210;2022-10-13T03:49:33;23.15;;;10.80;;
19605;SDS011;9950;50.168;8.210;2022-10-13T03:52:00;23.70;;;11.57;;
19605;SDS011;9950;50.168;8.210;2022-10-13T03:54:27;24.23;;;12.07;;
19605;SDS011;9950;50.168;8.210;2022-10-13T03:56:55;22.67;;;11.52;;
19605;SDS011;9950;50.168;8.210;2022-10-13T03:59:22;22.98;;;11.15;;
19605;SDS011;9950;50.168;8.210;2022-10-13T04:01:49;23.23;;;11.10;;
19605;SDS011;9950;50.168;8.210;2022-10-13T04:04:17;23.50;;;11.95;;
19605;SDS011;9950;50.168;8.210;2022-10-13T04:06:45;24.85;;;11.70;;
19605;SDS011;9950;50.168;8.210;2022-10-13T04:09:12;24.83;;;11.93;;
19605;SDS011;9950;50.168;8.210;2022-10-13T04:11:39;22.30;;;10.85;;
19605;SDS011;9950;50.168;8.210;2022-10-13T04:14:06;20.23;;;10.23;;
19605;SDS011;9950;50.168;8.210;2022-10-13T04:16:34;23.70;;;11.70;;
19605;SDS011;9950;50.168;8.210;2022-10-13T04:19:02;22.40;;;11.35;;
19605;SDS011;9950;50.168;8.210;2022-10-13T04:21:31;23.73;;;10.48;;
19605;SDS011;9950;50.168;8.210;2022-10-13T04:24:00;25.02;;;12.20;;
19605;SDS011;9950;50.168;8.210;2022-10-13T04:26:28;23.38;;;12.43;;
19605;SDS011;9950;50.168;8.210;2022-10-13T04:28:56;25.02;;;11.77;;
19605;SDS011;9950;50.168;8.210;2022-10-13T04:31:23;25.63;;;11.65;;
19605;SDS011;9950;50.168;8.210;2022-10-13T04:33:51;21.67;;;11.70;;
19605;SDS011;9950;50.168;8.210;2022-10-13T04:36:19;21.27;;;11.05;;
19605;SDS011;9950;50.168;8.210;2022-10-13T04:38:47;23.50;;;11.77;;
19605;SDS011;9950;50.168;8.210;2022-10-13T04:41:15;22.65;;;10.95;;
19605;SDS011;9950;50.168;8.210;2022-10-13T04:43:42;21.75;;;11.68;;
19605;SDS011;9950;50.168;8.210;2022-10-13T04:46:11;26.20;;;11.80;;
19605;SDS011;9950;50.168;8.210;2022-10-13T04:48:40;24.55;;;12.13;;
19605;SDS011;9950;50.168;8.210;2022-10-13T04:51:08;22.92;;;11.98;;
19605;SDS011;9950;50.168;8.210;2022-10-13T04:53:36;24.33;;;11.57;;
19605;SDS011;9950;50.168;8.210;2022-10-13T04:56:05;24.80;;;11.85;;
19605;SDS011;9950;50.168;8.210;2022-10-13T04:58:33;25.40;;;11.70;;
19605;SDS011;9950;50.168;8.210;2022-10-13T05:01:00;22.75;;;11.80;;
19605;SDS011;9950;50.168;8.210;2022-10-13T05:03:28;21.92;;;10.90;;
19605;SDS011;9950;50.168;8.210;2022-10-13T05:05:55;19.85;;;10.13;;
19605;SDS011;9950;50.168;8.210;2022-10-13T05:08:22;20.67;;;11.27;;
19605;SDS011;9950;50.168;8.210;2022-10-13T05:10:53;20.77;;;11.68;;
19605;SDS011;9950;50.168;8.210;2022-10-13T05:13:21;23.25;;;12.50;;
19605;SDS011;9950;50.168;8.210;2022-10-13T05:15:49;17.23;;;10.63;;
19605;SDS011;9950;50.168;8.210;2022-10-13T05:18:16;18.92;;;10.50;;
19605;SDS011;9950;50.168;8.210;2022-10-13T05:20:43;19.35;;;10.35;;
19605;SDS011;9950;50.168;8.210;2022-10-13T05:23:11;22.33;;;11.23;;
19605;SDS011;9950;50.168;8.210;2022-10-13T05:25:38;20.95;;;11.40;;
19605;SDS011;9950;50.168;8.210;2022-10-13T05:28:05;18.25;;;10.38;;
19605;SDS011;9950;50.168;8.210;2022-10-13T05:30:34;20.77;;;11.27;;
19605;SDS011;9950;50.168;8.210;2022-10-13T05:33:01;26.60;;;11.65;;
19605;SDS011;9950;50.168;8.210;2022-10-13T05:35:29;18.73;;;10.93;;
19605;SDS011;9950;50.168;8.210;2022-10-13T05:37:56;18.35;;;10.18;;
19605;SDS011;9950;50.168;8.210;2022-10-13T05:40:23;22.80;;;10.73;;
19605;SDS011;9950;50.168;8.210;2022-10-13T05:42:50;20.10;;;10.82;;
19605;SDS011;9950;50.168;8.210;2022-10-13T05:45:18;21.08;;;10.90;;
19605;SDS011;9950;50.168;8.210;2022-10-13T05:47:46;21.75;;;11.13;;
19605;SDS011;9950;50.168;8.210;2022-10-13T05:50:14;22.27;;;10.98;;
19605;SDS011;9950;50.168;8.210;2022-10-13T05:52:41;18.63;;;10.57;;
19605;SDS011;9950;50.168;8.210;2022-10-13T05:55:09;20.38;;;10.82;;
19605;SDS011;9950;50.168;8.210;2022-10-13T05:57:37;18.17;;;10.32;;
19605;SDS011;9950;50.168;8.210;2022-10-13T06:00:07;21.55;;;12.57;;
19605;SDS011;9950;50.168;8.210;2022-10-13T06:02:35;17.88;;;11.77;;
19605;SDS011;9950;50.168;8.210;2022-10-13T06:05:07;20.98;;;11.25;;
19605;SDS011;9950;50.168;8.210;2022-10-13T06:07:38;20.77;;;10.55;;
19605;SDS011;9950;50.168;8.210;2022-10-13T06:10:05;22.88;;;11.57;;
19605;SDS011;9950;50.168;8.210;2022-10-13T06:12:32;22.90;;;11.40;;
19605;SDS011;9950;50.168;8.210;2022-10-13T06:15:00;20.70;;;11.38;;
19605;SDS011;9950;50.168;8.210;2022-10-13T06:17:27;19.33;;;11.30;;
19605;SDS011;9950;50.168;8.210;2022-10-13T06:19:54;22.75;;;10.90;;
19605;SDS011;9950;50.168;8.210;2022-10-13T06:22:23;24.13;;;11.75;;
19605;SDS011;9950;50.168;8.210;2022-10-13T06:24:50;18.17;;;11.05;;
19605;SDS011;9950;50.168;8.210;2022-10-13T06:27:17;20.58;;;10.88;;
19605;SDS011;9950;50.168;8.210;2022-10-13T06:29:44;20.30;;;11.35;;
19605;SDS011;9950;50.168;8.210;2022-10-13T06:32:11;21.25;;;11.27;;
19605;SDS011;9950;50.168;8.210;2022-10-13T06:34:38;18.27;;;10.40;;
19605;SDS011;9950;50.168;8.210;2022-10-13T06:37:06;19.75;;;11.23;;
19605;SDS011;9950;50.168;8.210;2022-10-13T06:39:34;26.40;;;13.35;;
19605;SDS011;9950;50.168;8.210;2022-10-13T06:42:01;39.03;;;13.10;;
19605;SDS011;9950;50.168;8.210;2022-10-13T06:44:29;25.77;;;12.93;;
19605;SDS011;9950;50.168;8.210;2022-10-13T06:46:56;28.88;;;13.40;;
19605;SDS011;9950;50.168;8.210;2022-10-13T06:49:24;21.60;;;12.18;;
19605;SDS011;9950;50.168;8.210;2022-10-13T06:51:52;19.40;;;11.63;;
19605;SDS011;9950;50.168;8.210;2022-10-13T06:54:19;28.75;;;11.25;;
19605;SDS011;9950;50.168;8.210;2022-10-13T06:56:48;22.10;;;11.20;;
19605;SDS011;9950;50.168;8.210;2022-10-13T06:59:15;24.55;;;12.40;;
19605;SDS011;9950;50.168;8.210;2022-10-13T07:01:42;25.50;;;12.02;;
19605;SDS011;9950;50.168;8.210;2022-10-13T07:04:09;29.38;;;12.73;;
19605;SDS011;9950;50.168;8.210;2022-10-13T07:06:36;25.00;;;13.13;;
19605;SDS011;9950;50.168;8.210;2022-10-13T07:09:04;24.30;;;13.15;;
19605;SDS011;9950;50.168;8.210;2022-10-13T07:11:31;23.17;;;13.02;;
19605;SDS011;9950;50.168;8.210;2022-10-13T07:13:59;28.08;;;13.40;;
19605;SDS011;9950;50.168;8.210;2022-10-13T07:16:27;28.88;;;14.27;;
19605;SDS011;9950;50.168;8.210;2022-10-13T07:18:54;31.73;;;13.52;;
19605;SDS011;9950;50.168;8.210;2022-10-13T07:21:21;22.90;;;13.07;;
19605;SDS011;9950;50.168;8.210;2022-10-13T07:23:48;24.02;;;12.70;;
19605;SDS011;9950;50.168;8.210;2022-10-13T07:26:15;25.63;;;12.50;;
19605;SDS011;9950;50.168;8.210;2022-10-13T07:28:43;27.63;;;13.98;;
19605;SDS011;9950;50.168;8.210;2022-10-13T07:31:12;28.08;;;15.75;;
19605;SDS011;9950;50.168;8.210;2022-10-13T07:33:40;28.33;;;14.85;;
19605;SDS011;9950;50.168;8.210;2022-10-13T07:36:08;26.48;;;15.63;;
19605;SDS011;9950;50.168;8.210;2022-10-13T07:38:35;28.92;;;14.55;;
19605;SDS011;9950;50.168;8.210;2022-10-13T07:41:03;26.67;;;14.20;;
19605;SDS011;9950;50.168;8.210;2022-10-13T07:43:30;35.22;;;14.63;;
19605;SDS011;9950;50.168;8.210;2022-10-13T07:45:59;30.35;;;14.88;;
19605;SDS011;9950;50.168;8.210;2022-10-13T07:48:30;29.50;;;14.70;;
19605;SDS011;9950;50.168;8.210;2022-10-13T07:50:57;24.45;;;13.57;;
19605;SDS011;9950;50.168;8.210;2022-10-13T07:53:24;33.92;;;14.63;;
19605;SDS011;9950;50.168;8.210;2022-10-13T07:55:52;35.80;;;15.20;;
19605;SDS011;9950;50.168;8.210;2022-10-13T07:58:19;28.98;;;15.50;;
19605;SDS011;9950;50.168;8.210;2022-10-13T08:00:54;29.75;;;15.20;;
19605;SDS011;9950;50.168;8.210;2022-10-13T08:03:21;54.20;;;17.15;;
19605;SDS011;9950;50.168;8.210;2022-10-13T08:05:49;38.40;;;16.20;;
19605;SDS011;9950;50.168;8.210;2022-10-13T08:08:17;32.85;;;14.85;;
19605;SDS011;9950;50.168;8.210;2022-10-13T08:10:44;38.83;;;17.10;;
19605;SDS011;9950;50.168;8.210;2022-10-13T08:13:11;32.33;;;15.25;;
19605;SDS011;9950;50.168;8.210;2022-10-13T08:15:39;32.75;;;15.32;;
19605;SDS011;9950;50.168;8.210;2022-10-13T08:18:06;32.75;;;14.95;;
19605;SDS011;9950;50.168;8.210;2022-10-13T08:20:33;33.95;;;15.75;;
19605;SDS011;9950;50.168;8.210;2022-10-13T08:23:02;31.48;;;15.70;;
19605;SDS011;9950;50.168;8.210;2022-10-13T08:25:29;40.00;;;16.70;;
19605;SDS011;9950;50.168;8.210;2022-10-13T08:27:56;34.17;;;15.07;;
19605;SDS011;9950;50.168;8.210;2022-10-13T08:30:23;37.58;;;18.02;;
19605;SDS011;9950;50.168;8.210;2022-10-13T08:32:51;33.65;;;16.85;;
19605;SDS011;9950;50.168;8.210;2022-10-13T08:35:18;35.60;;;17.42;;
19605;SDS011;9950;50.168;8.210;2022-10-13T08:37:45;29.80;;;15.93;;
19605;SDS011;9950;50.168;8.210;2022-10-13T08:40:15;38.08;;;16.55;;
19605;SDS011;9950;50.168;8.210;2022-10-13T08:42:43;32.70;;;15.38;;
19605;SDS011;9950;50.168;8.210;2022-10-13T08:45:13;32.58;;;16.58;;
19605;SDS011;9950;50.168;8.210;2022-10-13T08:47:42;38.70;;;16.38;;
19605;SDS011;9950;50.168;8.210;2022-10-13T08:50:13;35.15;;;18.10;;
19605;SDS011;9950;50.168;8.210;2022-10-13T08:52:42;40.53;;;19.48;;
19605;SDS011;9950;50.168;8.210;2022-10-13T08:57:40;39.45;;;19.20;;
19605;SDS011;9950;50.168;8.210;2022-10-13T09:00:09;39.05;;;19.10;;
19605;SDS011;9950;50.168;8.210;2022-10-13T09:02:38;32.45;;;17.23;;
19605;SDS011;9950;50.168;8.210;2022-10-13T09:05:09;39.00;;;17.83;;
19605;SDS011;9950;50.168;8.210;2022-10-13T09:07:38;42.90;;;19.40;;
19605;SDS011;9950;50.168;8.210;2022-10-13T09:10:06;29.88;;;16.75;;
19605;SDS011;9950;50.168;8.210;2022-10-13T09:12:33;32.28;;;15.55;;
19605;SDS011;9950;50.168;8.210;2022-10-13T09:15:03;30.20;;;16.05;;
19605;SDS011;9950;50.168;8.210;2022-10-13T09:17:32;31.20;;;15.68;;
19605;SDS011;9950;50.168;8.210;2022-10-13T09:20:00;37.40;;;17.38;;
19605;SDS011;9950;50.168;8.210;2022-10-13T09:22:28;41.42;;;18.38;;
19605;SDS011;9950;50.168;8.210;2022-10-13T09:25:09;30.65;;;17.35;;
19605;SDS011;9950;50.168;8.210;2022-10-13T09:27:42;34.92;;;16.60;;
19605;SDS011;9950;50.168;8.210;2022-10-13T09:30:27;42.55;;;19.20;;
19605;SDS011;9950;50.168;8.210;2022-10-13T09:32:58;48.95;;;19.73;;
19605;SDS011;9950;50.168;8.210;2022-10-13T09:35:31;43.65;;;19.98;;
19605;SDS011;9950;50.168;8.210;2022-10-13T09:38:02;48.22;;;20.52;;
19605;SDS011;9950;50.168;8.210;2022-10-13T09:40:30;40.92;;;18.73;;
19605;SDS011;9950;50.168;8.210;2022-10-13T09:42:57;34.42;;;18.75;;
19605;SDS011;9950;50.168;8.210;2022-10-13T09:45:27;39.63;;;18.70;;
19605;SDS011;9950;50.168;8.210;2022-10-13T09:47:56;34.97;;;17.15;;
19605;SDS011;9950;50.168;8.210;2022-10-13T09:50:24;39.67;;;17.38;;
19605;SDS011;9950;50.168;8.210;2022-10-13T09:52:53;39.28;;;18.73;;
19605;SDS011;9950;50.168;8.210;2022-10-13T09:55:35;40.55;;;19.20;;
19605;SDS011;9950;50.168;8.210;2022-10-13T09:58:03;39.03;;;19.55;;
19605;SDS011;9950;50.168;8.210;2022-10-13T10:00:33;43.50;;;19.77;;
19605;SDS011;9950;50.168;8.210;2022-10-13T10:03:02;43.00;;;20.63;;
19605;SDS011;9950;50.168;8.210;2022-10-13T10:05:33;44.55;;;18.70;;
19605;SDS011;9950;50.168;8.210;2022-10-13T10:08:10;34.13;;;18.02;;
19605;SDS011;9950;50.168;8.210;2022-10-13T10:10:39;39.75;;;17.90;;
19605;SDS011;9950;50.168;8.210;2022-10-13T10:13:07;36.00;;;17.90;;
19605;SDS011;9950;50.168;8.210;2022-10-13T10:15:40;37.03;;;17.77;;
19605;SDS011;9950;50.168;8.210;2022-10-13T10:18:11;38.45;;;17.52;;
19605;SDS011;9950;50.168;8.210;2022-10-13T10:20:41;42.28;;;17.52;;
19605;SDS011;9950;50.168;8.210;2022-10-13T10:23:13;36.83;;;15.98;;
19605;SDS011;9950;50.168;8.210;2022-10-13T10:25:46;33.50;;;17.25;;
19605;SDS011;9950;50.168;8.210;2022-10-13T10:28:25;28.48;;;14.20;;
19605;SDS011;9950;50.168;8.210;2022-10-13T10:30:59;35.33;;;14.75;;
19605;SDS011;9950;50.168;8.210;2022-10-13T10:33:34;24.80;;;12.88;;
19605;SDS011;9950;50.168;8.210;2022-10-13T10:36:06;37.00;;;15.57;;
19605;SDS011;9950;50.168;8.210;2022-10-13T10:38:42;35.97;;;14.70;;
19605;SDS011;9950;50.168;8.210;2022-10-13T10:41:12;23.33;;;13.30;;
19605;SDS011;9950;50.168;8.210;2022-10-13T10:43:45;25.42;;;14.05;;
19605;SDS011;9950;50.168;8.210;2022-10-13T10:46:15;27.75;;;13.90;;
19605;SDS011;9950;50.168;8.210;2022-10-13T10:48:44;18.88;;;12.25;;
19605;SDS011;9950;50.168;8.210;2022-10-13T10:51:12;25.13;;;13.30;;
19605;SDS011;9950;50.168;8.210;2022-10-13T10:53:43;28.85;;;13.75;;
19605;SDS011;9950;50.168;8.210;2022-10-13T10:56:13;25.45;;;13.57;;
19605;SDS011;9950;50.168;8.210;2022-10-13T10:58:43;21.40;;;12.27;;
19605;SDS011;9950;50.168;8.210;2022-10-13T11:01:17;24.25;;;13.57;;
19605;SDS011;9950;50.168;8.210;2022-10-13T11:03:46;27.08;;;13.95;;
19605;SDS011;9950;50.168;8.210;2022-10-13T11:06:23;27.05;;;15.48;;
19605;SDS011;9950;50.168;8.210;2022-10-13T11:08:51;29.60;;;15.43;;
19605;SDS011;9950;50.168;8.210;2022-10-13T11:11:38;33.28;;;14.85;;
19605;SDS011;9950;50.168;8.210;2022-10-13T11:17:17;29.33;;;14.80;;
19605;SDS011;9950;50.168;8.210;2022-10-13T11:19:45;35.15;;;14.30;;
19605;SDS011;9950;50.168;8.210;2022-10-13T11:22:14;28.63;;;13.98;;
19605;SDS011;9950;50.168;8.210;2022-10-13T11:24:48;27.05;;;12.55;;
19605;SDS011;9950;50.168;8.210;2022-10-13T11:30:02;25.73;;;12.15;;
19605;SDS011;9950;50.168;8.210;2022-10-13T11:32:44;22.27;;;10.90;;
19605;SDS011;9950;50.168;8.210;2022-10-13T11:35:20;20.67;;;8.68;;
19605;SDS011;9950;50.168;8.210;2022-10-13T11:37:51;23.15;;;9.05;;
19605;SDS011;9950;50.168;8.210;2022-10-13T11:40:22;13.77;;;7.05;;
19605;SDS011;9950;50.168;8.210;2022-10-13T11:42:59;15.48;;;7.22;;
19605;SDS011;9950;50.168;8.210;2022-10-13T11:45:33;12.85;;;7.18;;
19605;SDS011;9950;50.168;8.210;2022-10-13T11:48:06;14.98;;;7.97;;
19605;SDS011;9950;50.168;8.210;2022-10-13T11:50:39;18.58;;;8.18;;
19605;SDS011;9950;50.168;8.210;2022-10-13T11:53:13;24.23;;;9.05;;
19605;SDS011;9950;50.168;8.210;2022-10-13T11:55:44;17.23;;;8.75;;
19605;SDS011;9950;50.168;8.210;2022-10-13T11:58:14;20.95;;;9.10;;
19605;SDS011;9950;50.168;8.210;2022-10-13T12:00:48;18.10;;;8.85;;
19605;SDS011;9950;50.168;8.210;2022-10-13T12:03:21;16.40;;;8.45;;
19605;SDS011;9950;50.168;8.210;2022-10-13T12:05:49;16.42;;;7.93;;
19605;SDS011;9950;50.168;8.210;2022-10-13T12:08:17;15.60;;;8.70;;
19605;SDS011;9950;50.168;8.210;2022-10-13T12:10:45;18.20;;;9.93;;
19605;SDS011;9950;50.168;8.210;2022-10-13T12:13:20;18.95;;;9.73;;
19605;SDS011;9950;50.168;8.210;2022-10-13T12:15:47;17.77;;;9.45;;
19605;SDS011;9950;50.168;8.210;2022-10-13T12:18:19;15.90;;;9.50;;
19605;SDS011;9950;50.168;8.210;2022-10-13T12:20:56;19.13;;;9.38;;
19605;SDS011;9950;50.168;8.210;2022-10-13T12:23:24;19.10;;;9.93;;
19605;SDS011;9950;50.168;8.210;2022-10-13T12:25:51;21.90;;;10.68;;
19605;SDS011;9950;50.168;8.210;2022-10-13T12:28:23;18.55;;;10.95;;
19605;SDS011;9950;50.168;8.210;2022-10-13T12:30:51;28.25;;;13.15;;
19605;SDS011;9950;50.168;8.210;2022-10-13T12:33:19;24.95;;;12.35;;
19605;SDS011;9950;50.168;8.210;2022-10-13T12:35:49;19.08;;;11.07;;
19605;SDS011;9950;50.168;8.210;2022-10-13T12:38:18;18.98;;;10.45;;
19605;SDS011;9950;50.168;8.210;2022-10-13T12:40:45;23.55;;;11.85;;
19605;SDS011;9950;50.168;8.210;2022-10-13T12:43:14;26.25;;;12.10;;
19605;SDS011;9950;50.168;8.210;2022-10-13T12:45:42;28.13;;;11.35;;
19605;SDS011;9950;50.168;8.210;2022-10-13T12:50:51;24.75;;;10.75;;
19605;SDS011;9950;50.168;8.210;2022-10-13T12:53:22;24.13;;;11.48;;
19605;SDS011;9950;50.168;8.210;2022-10-13T12:55:53;21.98;;;11.30;;
19605;SDS011;9950;50.168;8.210;2022-10-13T12:58:24;28.38;;;12.85;;
19605;SDS011;9950;50.168;8.210;2022-10-13T13:00:55;26.33;;;13.50;;
19605;SDS011;9950;50.168;8.210;2022-10-13T13:03:24;26.35;;;13.98;;
19605;SDS011;9950;50.168;8.210;2022-10-13T13:06:05;32.67;;;14.25;;
19605;SDS011;9950;50.168;8.210;2022-10-13T13:08:35;22.80;;;13.02;;
19605;SDS011;9950;50.168;8.210;2022-10-13T13:11:03;24.58;;;12.48;;
19605;SDS011;9950;50.168;8.210;2022-10-13T13:13:31;22.85;;;13.02;;
19605;SDS011;9950;50.168;8.210;2022-10-13T13:16:11;21.00;;;12.75;;
19605;SDS011;9950;50.168;8.210;2022-10-13T13:18:39;26.45;;;14.02;;
19605;SDS011;9950;50.168;8.210;2022-10-13T13:21:07;28.58;;;13.20;;
19605;SDS011;9950;50.168;8.210;2022-10-13T13:23:36;23.58;;;12.98;;
19605;SDS011;9950;50.168;8.210;2022-10-13T13:26:05;27.38;;;12.35;;
19605;SDS011;9950;50.168;8.210;2022-10-13T13:28:44;27.15;;;14.10;;
19605;SDS011;9950;50.168;8.210;2022-10-13T13:31:11;29.30;;;13.00;;
19605;SDS011;9950;50.168;8.210;2022-10-13T13:33:39;23.15;;;11.80;;
19605;SDS011;9950;50.168;8.210;2022-10-13T13:36:09;25.05;;;12.18;;
19605;SDS011;9950;50.168;8.210;2022-10-13T13:38:41;20.00;;;12.15;;
19605;SDS011;9950;50.168;8.210;2022-10-13T13:41:08;27.67;;;14.43;;
19605;SDS011;9950;50.168;8.210;2022-10-13T13:43:36;25.42;;;13.90;;
19605;SDS011;9950;50.168;8.210;2022-10-13T13:46:05;27.65;;;13.80;;
19605;SDS011;9950;50.168;8.210;2022-10-13T13:48:33;34.00;;;14.75;;
19605;SDS011;9950;50.168;8.210;2022-10-13T13:51:00;33.15;;;14.52;;
19605;SDS011;9950;50.168;8.210;2022-10-13T13:53:28;34.72;;;14.98;;
19605;SDS011;9950;50.168;8.210;2022-10-13T13:55:56;29.63;;;14.88;;
19605;SDS011;9950;50.168;8.210;2022-10-13T13:58:23;32.70;;;15.88;;
19605;SDS011;9950;50.168;8.210;2022-10-13T14:00:50;27.80;;;15.02;;
19605;SDS011;9950;50.168;8.210;2022-10-13T14:03:18;27.70;;;14.07;;
19605;SDS011;9950;50.168;8.210;2022-10-13T14:05:45;30.75;;;14.35;;
19605;SDS011;9950;50.168;8.210;2022-10-13T14:08:12;54.65;;;16.65;;
19605;SDS011;9950;50.168;8.210;2022-10-13T14:10:39;44.45;;;14.68;;
19605;SDS011;9950;50.168;8.210;2022-10-13T14:13:08;47.30;;;15.02;;
19605;SDS011;9950;50.168;8.210;2022-10-13T14:15:35;31.50;;;14.27;;
19605;SDS011;9950;50.168;8.210;2022-10-13T14:18:02;56.92;;;16.42;;
19605;SDS011;9950;50.168;8.210;2022-10-13T14:20:30;44.65;;;13.05;;
19605;SDS011;9950;50.168;8.210;2022-10-13T14:22:57;40.08;;;12.38;;
19605;SDS011;9950;50.168;8.210;2022-10-13T14:25:24;31.02;;;12.05;;
19605;SDS011;9950;50.168;8.210;2022-10-13T14:27:51;21.08;;;10.68;;
19605;SDS011;9950;50.168;8.210;2022-10-13T14:30:20;24.80;;;10.05;;
19605;SDS011;9950;50.168;8.210;2022-10-13T14:32:47;19.25;;;9.07;;
19605;SDS011;9950;50.168;8.210;2022-10-13T14:35:14;54.30;;;14.43;;
19605;SDS011;9950;50.168;8.210;2022-10-13T14:37:41;39.03;;;12.52;;
19605;SDS011;9950;50.168;8.210;2022-10-13T14:40:09;84.97;;;16.88;;
19605;SDS011;9950;50.168;8.210;2022-10-13T14:42:36;44.08;;;12.38;;
19605;SDS011;9950;50.168;8.210;2022-10-13T14:45:04;31.67;;;11.13;;
19605;SDS011;9950;50.168;8.210;2022-10-13T14:47:32;46.22;;;13.50;;
19605;SDS011;9950;50.168;8.210;2022-10-13T14:50:00;23.55;;;13.23;;
19605;SDS011;9950;50.168;8.210;2022-10-13T14:52:27;64.05;;;16.65;;
19605;SDS011;9950;50.168;8.210;2022-10-13T14:54:54;28.67;;;12.63;;
19605;SDS011;9950;50.168;8.210;2022-10-13T14:57:21;21.50;;;12.57;;